Aviation Digital Data Service (ADDS)

Output produced by METARs form (2048 UTC 24 June 2018)
found at http://www.aviationweather.gov/adds/metars/
 
LPAZ 242030Z 31006KT 9999 FEW024 21/15 Q1016
TAF LPAZ 241700Z 2418/2524 28008KT 9999 FEW020 BKN035 
     TEMPO 2418/2524 SCT018 
     BECMG 2422/2424 VRB05KT
       
LPBJ 242000Z /////KT CAVOK 22/16 Q1015
TAF LPBJ 241700Z 2418/2518 29014KT CAVOK 
     BECMG 2421/2424 27005KT 
     PROB40 2502/2508 2000 BCFG FEW002 BKN004 
     TEMPO 2508/2510 SCT008 BKN012 
     BECMG 2514/2516 30012KT
       
LPCS 242030Z 36007KT 9999 FEW014 18/14 Q1015
LPFL 241800Z 36016KT 9999 FEW006 BKN010 BKN022 22/20 Q1014
LPFR 242030Z 29006KT CAVOK 23/18 Q1014
TAF LPFR 241700Z 2418/2518 24008KT CAVOK 
     BECMG 2418/2421 30010KT 
     BECMG 2509/2512 24013KT
       
LPHR 242030Z 11003KT 100V160 9999 FEW010 22/20 Q1015
TAF LPHR 241400Z 2415/2424 19008KT 9999 SCT015 SCT025 
     TEMPO 2415/2424 5000 SHRA FEW020CB 
     PROB30 
     TEMPO 2415/2424 3000 TSRA BKN005 SCT015CB
       
LPLA 242000Z /////KT 9999 FEW025 23/18 Q1016
TAF LPLA 241700Z 2418/2518 VRB05KT 9999 FEW018 SCT035 
     PROB30 
     TEMPO 2419/2424 4000 -RADZ SCT007 BKN014 
     BECMG 2423/2501 08008KT
       
LPMA 242030Z 04006KT 350V080 9999 SCT015 20/17 Q1018
TAF LPMA 241700Z 2418/2518 VRB05KT 9999 SCT015 SCT030 
     PROB30 
     TEMPO 2418/2518 BKN015
       
LPMR 242000Z 35006KT 9999 BKN012 19/16 Q1016
TAF LPMR 241700Z 2418/2518 33008KT 9999 SCT008 BKN012 
     PROB40 2422/2508 2000 BR BKN006 
     BECMG 2511/2514 FEW012 BKN020
       
LPMT 242000Z 33007KT CAVOK 21/16 Q1014
TAF LPMT 241700Z 2418/2518 32010KT CAVOK 
     PROB40 2500/2508 FEW008 BKN012
       
LPOV 242000Z 35006KT 9999 BKN015 19/17 Q1015
TAF LPOV 241700Z 2418/2518 34005KT 8000 SCT008 BKN016 
     TEMPO 2418/2424 6000 SCT004 BKN010 
     PROB40 2500/2509 0200 FG BKN002 
     PROB30 
     TEMPO 2503/2507 5000 SHRA FEW030CB 
     BECMG 2512/2514 28008KT 9999 FEW012 BKN018
       
LPPD 242030Z 01006KT 340V050 9999 FEW022 SCT040 21/15 Q1016
TAF LPPD 241700Z 2418/2518 27010KT 9999 FEW020 BKN045 
     TEMPO 2418/2518 SCT020 
     BECMG 2421/2424 VRB05KT
       
LPPR 242030Z 33003KT 7000 BKN004 18/17 Q1016
TAF LPPR 241700Z 2418/2518 28008KT 9999 SCT004 BKN008 
     BECMG 2418/2421 VRB03KT 5000 BR SCT002 BKN004 
     PROB40 2421/2509 0300 DZRA FG VV001 
     BECMG 2509/2512 27008KT 9999 NSW SCT006 BKN012
       
LPPS 242030Z 28007KT 9999 FEW015 20/16 Q1018
TAF LPPS 241700Z 2418/2524 27007KT 9999 SCT015 
     TEMPO 2418/2524 VRB05KT SCT015 BKN030
       
LPPT 242030Z 31008KT 280V340 9999 FEW015 18/15 Q1015
TAF LPPT 241700Z 2418/2524 31012KT CAVOK 
     BECMG 2422/2501 31005KT 9999 SCT012 
     TEMPO 2502/2509 BKN008 
     BECMG 2510/2513 31012KT SCT030 
     BECMG 2518/2520 33007KT CAVOK
       
LPBJ 242000Z /////KT CAVOK 22/16 Q1015
TAF LPBJ 241700Z 2418/2518 29014KT CAVOK 
     BECMG 2421/2424 27005KT 
     PROB40 2502/2508 2000 BCFG FEW002 BKN004 
     TEMPO 2508/2510 SCT008 BKN012 
     BECMG 2514/2516 30012KT
       
LPCS 242030Z 36007KT 9999 FEW014 18/14 Q1015
LPFR 242030Z 29006KT CAVOK 23/18 Q1014
TAF LPFR 241700Z 2418/2518 24008KT CAVOK 
     BECMG 2418/2421 30010KT 
     BECMG 2509/2512 24013KT
       
LPFL 241800Z 36016KT 9999 FEW006 BKN010 BKN022 22/20 Q1014
LPHR 242030Z 11003KT 100V160 9999 FEW010 22/20 Q1015
TAF LPHR 241400Z 2415/2424 19008KT 9999 SCT015 SCT025 
     TEMPO 2415/2424 5000 SHRA FEW020CB 
     PROB30 
     TEMPO 2415/2424 3000 TSRA BKN005 SCT015CB
       
LPLA 242000Z /////KT 9999 FEW025 23/18 Q1016
TAF LPLA 241700Z 2418/2518 VRB05KT 9999 FEW018 SCT035 
     PROB30 
     TEMPO 2419/2424 4000 -RADZ SCT007 BKN014 
     BECMG 2423/2501 08008KT
       
LPPT 242030Z 31008KT 280V340 9999 FEW015 18/15 Q1015
TAF LPPT 241700Z 2418/2524 31012KT CAVOK 
     BECMG 2422/2501 31005KT 9999 SCT012 
     TEMPO 2502/2509 BKN008 
     BECMG 2510/2513 31012KT SCT030 
     BECMG 2518/2520 33007KT CAVOK
       
LPMA 242030Z 04006KT 350V080 9999 SCT015 20/17 Q1018
TAF LPMA 241700Z 2418/2518 VRB05KT 9999 SCT015 SCT030 
     PROB30 
     TEMPO 2418/2518 BKN015
       
LPMR 242000Z 35006KT 9999 BKN012 19/16 Q1016
TAF LPMR 241700Z 2418/2518 33008KT 9999 SCT008 BKN012 
     PROB40 2422/2508 2000 BR BKN006 
     BECMG 2511/2514 FEW012 BKN020
       
LPMT 242000Z 33007KT CAVOK 21/16 Q1014
TAF LPMT 241700Z 2418/2518 32010KT CAVOK 
     PROB40 2500/2508 FEW008 BKN012
       
LPOV 242000Z 35006KT 9999 BKN015 19/17 Q1015
TAF LPOV 241700Z 2418/2518 34005KT 8000 SCT008 BKN016 
     TEMPO 2418/2424 6000 SCT004 BKN010 
     PROB40 2500/2509 0200 FG BKN002 
     PROB30 
     TEMPO 2503/2507 5000 SHRA FEW030CB 
     BECMG 2512/2514 28008KT 9999 FEW012 BKN018
       
LPPD 242030Z 01006KT 340V050 9999 FEW022 SCT040 21/15 Q1016
TAF LPPD 241700Z 2418/2518 27010KT 9999 FEW020 BKN045 
     TEMPO 2418/2518 SCT020 
     BECMG 2421/2424 VRB05KT
       
LPPR 242030Z 33003KT 7000 BKN004 18/17 Q1016
TAF LPPR 241700Z 2418/2518 28008KT 9999 SCT004 BKN008 
     BECMG 2418/2421 VRB03KT 5000 BR SCT002 BKN004 
     PROB40 2421/2509 0300 DZRA FG VV001 
     BECMG 2509/2512 27008KT 9999 NSW SCT006 BKN012
       
LPPS 242030Z 28007KT 9999 FEW015 20/16 Q1018
TAF LPPS 241700Z 2418/2524 27007KT 9999 SCT015 
     TEMPO 2418/2524 VRB05KT SCT015 BKN030
       
LPAZ 242030Z 31006KT 9999 FEW024 21/15 Q1016
TAF LPAZ 241700Z 2418/2524 28008KT 9999 FEW020 BKN035 
     TEMPO 2418/2524 SCT018 
     BECMG 2422/2424 VRB05KT